Henryville, Pennsylvania
Current Conditions -  °F | °C
As of 7:53 PM on Friday 19 Dec 2014 (Local Time) from KMPO Reporting Station
Overcast Overcast  
Wind Chill: 10°   Ceiling: 1000
Heat Index: 24°   Visibility: 10mi
Dew Point: 19°   Wind: 18mph
Humidity: 81%   Direction: 330°NNW
Pressure: 30.06"   Gusts: 25mph
Location:  41.09°N, 75.24°W
Report Text: KMPO 200053Z AUTO 33016G22KT 10SM OVC010 M04/M07 A3006 RMK AO2 CIG 010V013 SLP208 T10441072
Loading
Personal Weather Stations






























Interactive Weather Map New forecast layout! Learn more

10-Day Weather Forecast

Advertisements
Track Severe Weather on mobile